Time;durP1;ratioP1;P1;durP2;ratioP2;P2;SDS_P1;SDS_P2;PMS_P1;PMS_P2;Temp;Humidity;BMP_temperature;BMP_pressure;BME280_temperature;BME280_humidity;BME280_pressure;Samples;Min_cycle;Max_cycle;Signal;HPM_P1;HPM_P2
2022/01/22 00:00:01;;;;;;;20.97;20.07;;;;;;;;;;5095718;28;20229;-77
2022/01/22 00:02:28;;;;;;;21.50;20.50;;;;;;;;;;5095742;28;20241;-77
2022/01/22 00:04:55;;;;;;;21.27;20.37;;;;;;;;;;5095569;28;20201;-73
2022/01/22 00:07:21;;;;;;;21.20;20.20;;;;;;;;;;5095886;28;20197;-72
2022/01/22 00:09:51;;;;;;;22.43;21.33;;;;;;;;;;5095885;28;20251;-75
2022/01/22 00:12:30;;;;;;;23.53;22.43;;;;;;;;;;5095524;28;20631;-75
2022/01/22 00:14:58;;;;;;;22.77;21.67;;;;;;;;;;5095579;28;20190;-75
2022/01/22 00:17:27;;;;;;;22.57;21.47;;;;;;;;;;5095685;28;20294;-75
2022/01/22 00:19:53;;;;;;;26.83;25.63;;;;;;;;;;5095396;28;20281;-75
2022/01/22 00:22:25;;;;;;;22.90;21.50;;;;;;;;;;5095342;28;20226;-75
2022/01/22 00:24:56;;;;;;;25.27;23.97;;;;;;;;;;5095649;28;20194;-75
2022/01/22 00:27:22;;;;;;;24.63;22.97;;;;;;;;;;5095218;28;20250;-76
2022/01/22 00:29:49;;;;;;;31.90;29.87;;;;;;;;;;5095502;28;20225;-74
2022/01/22 00:32:16;;;;;;;25.00;23.63;;;;;;;;;;5095517;28;20277;-74
2022/01/22 00:34:44;;;;;;;24.30;23.00;;;;;;;;;;5095418;28;20225;-75
2022/01/22 00:37:11;;;;;;;25.03;23.63;;;;;;;;;;5094958;28;20711;-75
2022/01/22 00:39:38;;;;;;;26.10;24.70;;;;;;;;;;5094976;28;20711;-75
2022/01/22 00:42:10;;;;;;;25.53;24.23;;;;;;;;;;5094948;28;20276;-75
2022/01/22 00:44:37;;;;;;;24.90;23.60;;;;;;;;;;5094971;28;20717;-75
2022/01/22 00:47:04;;;;;;;25.03;23.73;;;;;;;;;;5095159;28;20226;-75
2022/01/22 00:49:31;;;;;;;26.00;24.60;;;;;;;;;;5095090;28;20286;-75
2022/01/22 00:52:00;;;;;;;26.53;25.13;;;;;;;;;;5094856;28;20230;-75
2022/01/22 00:54:26;;;;;;;26.73;25.23;;;;;;;;;;5095141;28;20193;-75
2022/01/22 00:56:53;;;;;;;27.10;25.50;;;;;;;;;;5095441;28;20257;-75
2022/01/22 00:59:20;;;;;;;26.60;25.10;;;;;;;;;;5093881;28;20233;-75
2022/01/22 01:01:46;;;;;;;26.00;24.60;;;;;;;;;;5094543;28;20627;-75
2022/01/22 01:04:13;;;;;;;25.87;24.47;;;;;;;;;;5094567;28;20194;-75
2022/01/22 01:06:40;;;;;;;28.37;26.73;;;;;;;;;;5094743;28;20247;-74
2022/01/22 01:09:09;;;;;;;27.20;25.70;;;;;;;;;;5094419;28;20198;-76
2022/01/22 01:11:41;;;;;;;28.03;26.53;;;;;;;;;;5094468;28;20571;-75
2022/01/22 01:14:11;;;;;;;26.57;25.07;;;;;;;;;;5094389;28;20217;-76
2022/01/22 01:16:57;;;;;;;25.53;24.13;;;;;;;;;;5094368;28;20282;-75
2022/01/22 01:33:12;;;;;;;27.93;26.33;;;;;;;;;;5094711;28;20235;-75
2022/01/22 01:35:40;;;;;;;28.90;27.30;;;;;;;;;;5094210;28;20190;-75
2022/01/22 01:38:08;;;;;;;29.07;27.57;;;;;;;;;;5094215;28;20193;-75
2022/01/22 01:40:40;;;;;;;29.40;27.80;;;;;;;;;;5094074;28;20205;-74
2022/01/22 01:43:12;;;;;;;28.90;27.20;;;;;;;;;;5094109;28;20268;-74
2022/01/22 01:45:39;;;;;;;29.33;27.73;;;;;;;;;;5094010;28;20190;-74
2022/01/22 01:48:10;;;;;;;30.30;28.27;;;;;;;;;;5093952;28;20679;-73
2022/01/22 01:50:39;;;;;;;28.20;26.60;;;;;;;;;;5093931;28;20186;-74
2022/01/22 01:53:11;;;;;;;27.47;25.97;;;;;;;;;;5093949;28;20202;-75
2022/01/22 01:55:51;;;;;;;28.77;27.17;;;;;;;;;;5093625;28;20281;-75
2022/01/22 01:58:17;;;;;;;26.20;24.80;;;;;;;;;;5093328;28;20733;-75
2022/01/22 02:00:44;;;;;;;29.43;27.73;;;;;;;;;;5093697;28;20550;-75
2022/01/22 02:03:12;;;;;;;29.77;28.17;;;;;;;;;;5093703;28;20233;-75
2022/01/22 02:05:39;;;;;;;29.07;27.23;;;;;;;;;;5093293;28;20240;-75
2022/01/22 02:08:06;;;;;;;29.73;28.13;;;;;;;;;;5093221;28;20204;-75
2022/01/22 02:10:36;;;;;;;28.17;26.67;;;;;;;;;;5093460;28;20189;-74
2022/01/22 02:24:00;;;;;;;24.73;23.43;;;;;;;;;;5048672;28;20197;-74
2022/01/22 02:26:29;;;;;;;25.80;24.40;;;;;;;;;;5092915;28;20200;-75
2022/01/22 02:28:55;;;;;;;24.90;23.60;;;;;;;;;;5093245;28;20237;-75
2022/01/22 02:31:29;;;;;;;29.13;27.63;;;;;;;;;;5093103;28;20198;-75
2022/01/22 02:34:04;;;;;;;29.03;27.40;;;;;;;;;;5092850;28;20675;-75
2022/01/22 02:36:37;;;;;;;27.37;25.97;;;;;;;;;;5092670;28;20206;-74
2022/01/22 02:39:08;;;;;;;24.80;23.50;;;;;;;;;;5092748;28;20269;-74
2022/01/22 02:41:37;;;;;;;25.73;24.43;;;;;;;;;;5092694;28;20616;-75
2022/01/22 02:44:04;;;;;;;26.63;25.23;;;;;;;;;;5092950;28;20233;-74
2022/01/22 02:46:32;;;;;;;26.57;25.17;;;;;;;;;;5092901;28;20197;-75
2022/01/22 02:48:59;;;;;;;26.67;25.33;;;;;;;;;;5092621;28;20668;-74
2022/01/22 02:51:27;;;;;;;25.77;24.47;;;;;;;;;;5092803;28;20232;-75
2022/01/22 02:53:56;;;;;;;24.97;23.67;;;;;;;;;;5092423;28;20223;-75
2022/01/22 02:56:23;;;;;;;25.07;23.77;;;;;;;;;;5092375;28;20221;-74
2022/01/22 02:58:50;;;;;;;25.27;23.97;;;;;;;;;;5092532;28;20237;-74
2022/01/22 03:01:18;;;;;;;24.70;23.50;;;;;;;;;;5092705;28;20660;-74
2022/01/22 03:03:44;;;;;;;25.47;24.17;;;;;;;;;;5092712;28;20327;-74
2022/01/22 03:06:11;;;;;;;25.13;23.83;;;;;;;;;;5092301;28;20190;-74
2022/01/22 03:08:39;;;;;;;24.27;23.17;;;;;;;;;;5092307;28;20286;-75
2022/01/22 03:11:17;;;;;;;22.63;21.53;;;;;;;;;;5092280;28;20239;-75
2022/01/22 03:16:51;;;;;;;18.93;18.03;;;;;;;;;;5092293;28;20212;-74
2022/01/22 03:19:31;;;;;;;21.60;20.60;;;;;;;;;;5092220;28;20182;-75
2022/01/22 03:22:12;;;;;;;21.80;20.80;;;;;;;;;;5092490;28;20541;-74
2022/01/22 03:27:27;;;;;;;20.40;19.40;;;;;;;;;;5092174;28;20259;-74
2022/01/22 03:29:55;;;;;;;21.87;20.80;;;;;;;;;;5092117;28;20563;-74
2022/01/22 03:32:23;;;;;;;21.60;20.50;;;;;;;;;;5092295;28;20254;-74
2022/01/22 03:34:59;;;;;;;21.17;20.17;;;;;;;;;;5092015;28;20651;-75
2022/01/22 03:37:27;;;;;;;22.03;20.93;;;;;;;;;;5092205;28;20217;-73
2022/01/22 03:39:53;;;;;;;22.40;21.30;;;;;;;;;;5091923;28;20747;-73
2022/01/22 03:42:20;;;;;;;22.70;21.60;;;;;;;;;;5091912;28;20236;-74
2022/01/22 03:44:48;;;;;;;22.87;21.77;;;;;;;;;;5092177;28;20259;-74
2022/01/22 03:47:15;;;;;;;20.70;19.70;;;;;;;;;;5091860;28;20197;-73
2022/01/22 03:49:42;;;;;;;20.40;19.40;;;;;;;;;;5091837;28;20202;-74
2022/01/22 03:52:09;;;;;;;23.43;22.43;;;;;;;;;;5092172;28;20202;-73
2022/01/22 03:54:35;;;;;;;22.23;20.93;;;;;;;;;;5092124;28;20194;-74
2022/01/22 03:57:02;;;;;;;24.80;23.63;;;;;;;;;;5091761;28;20329;-74
2022/01/22 03:59:30;;;;;;;21.33;20.33;;;;;;;;;;5091651;28;20237;-74
2022/01/22 04:04:42;;;;;;;21.03;20.03;;;;;;;;;;5091807;28;20694;-74
2022/01/22 04:10:01;;;;;;;24.17;22.97;;;;;;;;;;5091711;28;20261;-74
2022/01/22 04:12:35;;;;;;;24.57;23.37;;;;;;;;;;5091851;28;20667;-74
2022/01/22 04:15:04;;;;;;;25.67;24.47;;;;;;;;;;5091686;28;20225;-73
2022/01/22 04:25:56;;;;;;;27.87;26.47;;;;;;;;;;5091684;28;20311;-74
2022/01/22 04:28:23;;;;;;;28.43;27.03;;;;;;;;;;5091510;28;20182;-74
2022/01/22 04:30:50;;;;;;;27.90;26.50;;;;;;;;;;5091789;28;20221;-73
2022/01/22 04:33:18;;;;;;;27.50;26.10;;;;;;;;;;5091741;28;20205;-73
2022/01/22 04:35:45;;;;;;;28.60;27.10;;;;;;;;;;5093530;28;20672;-74
2022/01/22 04:38:12;;;;;;;30.63;29.00;;;;;;;;;;5095309;28;20243;-73
2022/01/22 04:40:39;;;;;;;29.60;28.00;;;;;;;;;;5094999;28;20254;-73
2022/01/22 04:43:06;;;;;;;31.37;29.67;;;;;;;;;;5094913;28;20202;-74
2022/01/22 04:45:46;;;;;;;29.47;27.97;;;;;;;;;;5094797;28;20223;-73
2022/01/22 04:48:26;;;;;;;28.03;26.53;;;;;;;;;;5095200;28;20189;-73
2022/01/22 04:56:22;;;;;;;26.97;25.37;;;;;;;;;;5095137;28;20185;-73
2022/01/22 04:58:49;;;;;;;27.57;25.90;;;;;;;;;;5094392;28;20230;-74
2022/01/22 05:01:16;;;;;;;26.30;24.90;;;;;;;;;;5094625;28;20229;-74
2022/01/22 05:03:43;;;;;;;24.17;22.83;;;;;;;;;;5095703;28;20244;-73
2022/01/22 05:06:11;;;;;;;25.63;24.23;;;;;;;;;;5094859;28;20233;-73
2022/01/22 05:08:37;;;;;;;24.40;22.80;;;;;;;;;;5094777;28;20237;-74
2022/01/22 05:11:04;;;;;;;21.43;20.23;;;;;;;;;;5094664;28;20198;-74
2022/01/22 05:13:31;;;;;;;20.57;19.47;;;;;;;;;;5094727;28;20193;-73
2022/01/22 05:15:57;;;;;;;19.30;18.30;;;;;;;;;;5094621;28;20289;-74
2022/01/22 05:18:24;;;;;;;19.00;17.93;;;;;;;;;;5094575;28;20294;-74
2022/01/22 05:20:59;;;;;;;18.10;17.10;;;;;;;;;;5094231;28;20197;-74
2022/01/22 05:23:28;;;;;;;19.33;18.23;;;;;;;;;;5094470;28;20197;-74
2022/01/22 05:25:58;;;;;;;20.93;19.73;;;;;;;;;;5094205;28;20197;-74
2022/01/22 05:31:33;;;;;;;22.43;20.60;;;;;;;;;;5012321;28;20192;-73
2022/01/22 05:36:58;;;;;;;21.87;20.57;;;;;;;;;;5094002;28;20721;-74
2022/01/22 05:39:28;;;;;;;20.10;19.00;;;;;;;;;;5093888;28;20193;-73
2022/01/22 05:41:55;;;;;;;22.03;20.70;;;;;;;;;;5093782;28;20200;-74
2022/01/22 05:44:22;;;;;;;21.80;20.50;;;;;;;;;;5093784;28;20655;-73
2022/01/22 05:46:51;;;;;;;21.20;19.90;;;;;;;;;;5093572;28;20194;-73
2022/01/22 05:49:19;;;;;;;22.23;20.63;;;;;;;;;;5094002;28;20752;-74
2022/01/22 05:51:47;;;;;;;21.37;20.07;;;;;;;;;;5093896;28;20205;-74
2022/01/22 05:54:44;;;;;;;20.20;19.00;;;;;;;;;;5093607;28;20198;-74
2022/01/22 05:59:53;;;;;;;20.00;18.90;;;;;;;;;;5093899;28;20189;-74
2022/01/22 06:02:19;;;;;;;21.40;20.00;;;;;;;;;;5093777;28;20251;-73
2022/01/22 06:04:47;;;;;;;20.20;18.90;;;;;;;;;;5093657;28;20274;-73
2022/01/22 06:07:14;;;;;;;19.27;18.27;;;;;;;;;;5093339;28;20194;-74
2022/01/22 06:09:52;;;;;;;19.80;18.57;;;;;;;;;;5093581;28;20221;-74
2022/01/22 06:12:36;;;;;;;18.87;17.83;;;;;;;;;;5093590;28;20181;-74
2022/01/22 06:15:04;;;;;;;20.07;18.97;;;;;;;;;;5093474;28;20186;-73
2022/01/22 06:17:30;;;;;;;19.67;18.43;;;;;;;;;;5093114;28;20276;-74
2022/01/22 06:19:57;;;;;;;17.90;16.90;;;;;;;;;;5093154;28;20193;-74
2022/01/22 06:22:24;;;;;;;22.23;20.93;;;;;;;;;;5093338;28;20198;-73
2022/01/22 06:24:50;;;;;;;19.70;18.50;;;;;;;;;;5093344;28;20270;-74
2022/01/22 06:27:17;;;;;;;21.90;20.80;;;;;;;;;;5093170;28;20284;-74
2022/01/22 06:29:45;;;;;;;20.87;19.80;;;;;;;;;;5093330;28;20228;-74
2022/01/22 06:32:12;;;;;;;21.37;20.37;;;;;;;;;;5092966;28;20251;-74
2022/01/22 06:34:39;;;;;;;21.27;19.57;;;;;;;;;;5093116;28;20277;-74
2022/01/22 06:37:05;;;;;;;21.93;20.83;;;;;;;;;;5092680;28;20198;-74
2022/01/22 06:39:41;;;;;;;23.80;22.60;;;;;;;;;;5093073;28;20247;-73
2022/01/22 06:42:07;;;;;;;24.17;22.87;;;;;;;;;;5093570;28;20571;-73
2022/01/22 06:44:34;;;;;;;23.93;22.63;;;;;;;;;;5092938;28;20193;-74
2022/01/22 06:47:03;;;;;;;25.67;24.17;;;;;;;;;;5092627;28;20198;-74
2022/01/22 06:49:30;;;;;;;21.37;20.17;;;;;;;;;;5092588;28;20200;-74
2022/01/22 06:51:57;;;;;;;20.73;19.53;;;;;;;;;;5092875;28;20193;-74
2022/01/22 06:54:24;;;;;;;24.03;22.93;;;;;;;;;;5092562;28;20655;-74
2022/01/22 06:56:51;;;;;;;24.40;22.67;;;;;;;;;;5092709;28;20269;-74
2022/01/22 06:59:17;;;;;;;26.87;25.37;;;;;;;;;;5091489;28;20233;-74
2022/01/22 07:01:44;;;;;;;24.90;23.60;;;;;;;;;;5092692;28;20190;-74
2022/01/22 07:04:13;;;;;;;26.47;24.97;;;;;;;;;;5092409;28;20194;-74
2022/01/22 07:06:39;;;;;;;24.87;23.57;;;;;;;;;;5092669;28;20544;-74
2022/01/22 07:09:06;;;;;;;25.90;24.60;;;;;;;;;;5092239;28;20649;-74
2022/01/22 07:11:33;;;;;;;26.23;24.83;;;;;;;;;;5092606;28;20216;-74
2022/01/22 07:13:59;;;;;;;27.37;25.97;;;;;;;;;;5092208;28;20194;-74
2022/01/22 07:16:26;;;;;;;25.63;24.23;;;;;;;;;;5092542;28;20274;-74
2022/01/22 07:18:58;;;;;;;28.33;26.83;;;;;;;;;;5092444;28;20225;-74
2022/01/22 07:21:29;;;;;;;26.97;25.50;;;;;;;;;;5092229;28;20186;-74
2022/01/22 07:26:48;;;;;;;28.03;26.73;;;;;;;;;;5044190;28;20668;-75
2022/01/22 07:29:15;;;;;;;21.13;19.83;;;;;;;;;;5092311;28;20190;-74
2022/01/22 07:31:41;;;;;;;27.27;25.87;;;;;;;;;;5092033;28;20190;-75
2022/01/22 07:34:08;;;;;;;23.80;22.37;;;;;;;;;;5092049;28;20280;-74
2022/01/22 07:36:36;;;;;;;23.20;22.03;;;;;;;;;;5091989;28;20211;-75
2022/01/22 07:39:04;;;;;;;21.70;20.33;;;;;;;;;;5092240;28;20710;-75
2022/01/22 07:41:30;;;;;;;22.47;21.17;;;;;;;;;;5091964;28;20254;-76
2022/01/22 07:43:57;;;;;;;22.00;20.90;;;;;;;;;;5091964;28;20602;-76
2022/01/22 07:46:24;;;;;;;22.13;21.10;;;;;;;;;;5092210;28;20217;-75
2022/01/22 07:48:51;;;;;;;24.17;22.97;;;;;;;;;;5091921;28;20229;-74
2022/01/22 07:51:17;;;;;;;26.20;24.20;;;;;;;;;;5092191;28;20676;-76
2022/01/22 07:53:46;;;;;;;20.17;19.17;;;;;;;;;;5091821;28;20228;-75
2022/01/22 07:56:13;;;;;;;20.03;18.83;;;;;;;;;;5092109;28;20194;-75
2022/01/22 07:58:40;;;;;;;19.77;18.67;;;;;;;;;;5091608;28;20241;-76
2022/01/22 08:01:06;;;;;;;25.97;24.60;;;;;;;;;;5091823;28;20194;-75
2022/01/22 08:03:33;;;;;;;24.50;22.77;;;;;;;;;;5091857;28;20246;-75
2022/01/22 08:06:00;;;;;;;28.70;26.90;;;;;;;;;;5092001;28;20190;-75
2022/01/22 08:08:27;;;;;;;24.57;23.07;;;;;;;;;;5091848;28;20197;-75
2022/01/22 08:10:56;;;;;;;23.30;22.10;;;;;;;;;;5095358;28;20668;-76
2022/01/22 08:13:23;;;;;;;25.47;23.70;;;;;;;;;;5095622;28;20541;-75
2022/01/22 08:15:49;;;;;;;27.40;25.90;;;;;;;;;;5095829;28;20194;-75
2022/01/22 08:18:16;;;;;;;24.37;23.00;;;;;;;;;;5095678;28;20696;-74
2022/01/22 08:20:43;;;;;;;26.27;24.37;;;;;;;;;;5095432;28;20693;-75
2022/01/22 08:23:10;;;;;;;27.00;25.27;;;;;;;;;;5095438;28;20194;-74
2022/01/22 08:25:40;;;;;;;28.63;27.07;;;;;;;;;;5095681;28;20202;-75
2022/01/22 08:30:55;;;;;;;30.53;28.73;;;;;;;;;;5095337;28;20572;-76
2022/01/22 08:35:52;;;;;;;29.37;27.57;;;;;;;;;;5095183;28;20225;-76
2022/01/22 08:36:18;;;;;;;28.83;27.10;;;;;;;;;;5094790;28;20197;-74
2022/01/22 08:38:45;;;;;;;27.67;25.53;;;;;;;;;;5095414;28;20241;-76
2022/01/22 08:41:12;;;;;;;26.57;24.87;;;;;;;;;;5095411;28;20198;-73
2022/01/22 08:43:40;;;;;;;23.77;22.27;;;;;;;;;;5095286;28;20225;-75
2022/01/22 08:46:07;;;;;;;23.43;22.03;;;;;;;;;;5095456;28;20190;-76
2022/01/22 08:48:33;;;;;;;26.57;24.57;;;;;;;;;;5095107;28;20296;-77
2022/01/22 08:51:00;;;;;;;27.23;25.43;;;;;;;;;;5095132;28;20736;-74
2022/01/22 08:53:27;;;;;;;23.40;21.90;;;;;;;;;;5095075;28;20229;-74
2022/01/22 08:55:54;;;;;;;24.23;22.47;;;;;;;;;;5095569;28;20233;-77
2022/01/22 08:58:21;;;;;;;25.27;23.17;;;;;;;;;;5094834;28;20652;-76
2022/01/22 09:00:49;;;;;;;28.93;26.70;;;;;;;;;;5094985;28;20289;-76
2022/01/22 09:03:18;;;;;;;26.80;25.30;;;;;;;;;;5094762;28;20190;-76
2022/01/22 09:05:46;;;;;;;26.80;25.20;;;;;;;;;;5094825;28;20659;-77
2022/01/22 09:08:15;;;;;;;27.43;25.73;;;;;;;;;;5095448;28;20190;-76
2022/01/22 09:10:42;;;;;;;26.83;25.23;;;;;;;;;;5095421;28;20204;-77
2022/01/22 09:13:08;;;;;;;25.23;23.30;;;;;;;;;;5094807;28;20724;-77
2022/01/22 09:15:35;;;;;;;27.73;25.80;;;;;;;;;;5095378;28;20227;-77
2022/01/22 09:18:03;;;;;;;27.60;25.90;;;;;;;;;;5094590;28;20225;-76
2022/01/22 09:20:55;;;;;;;28.53;26.83;;;;;;;;;;5094786;28;20254;-77
2022/01/22 09:23:22;;;;;;;30.03;28.23;;;;;;;;;;5095929;28;20194;-78
2022/01/22 09:25:49;;;;;;;28.73;26.83;;;;;;;;;;5099888;28;20607;-78
2022/01/22 09:28:15;;;;;;;26.67;24.97;;;;;;;;;;5097024;28;20251;-77
2022/01/22 09:30:43;;;;;;;28.57;26.87;;;;;;;;;;5097433;28;20229;-77
2022/01/22 09:33:11;;;;;;;29.60;27.80;;;;;;;;;;5096586;28;20228;-77
2022/01/22 09:35:38;;;;;;;30.70;28.70;;;;;;;;;;5099469;28;20225;-78
2022/01/22 09:38:05;;;;;;;32.13;29.73;;;;;;;;;;5100013;28;20704;-78
2022/01/22 09:40:32;;;;;;;32.93;30.63;;;;;;;;;;5098596;28;20679;-76
2022/01/22 09:42:59;;;;;;;31.50;29.50;;;;;;;;;;5103597;28;20242;-78
2022/01/22 09:45:29;;;;;;;32.13;30.03;;;;;;;;;;5101145;28;20198;-80
2022/01/22 09:47:56;;;;;;;32.77;30.67;;;;;;;;;;5101493;28;20198;-78
2022/01/22 09:50:25;;;;;;;32.77;30.67;;;;;;;;;;5098700;28;20194;-78
2022/01/22 09:52:52;;;;;;;34.77;32.47;;;;;;;;;;5097463;28;20247;-78
2022/01/22 09:55:19;;;;;;;37.10;34.43;;;;;;;;;;5097099;28;20221;-79
2022/01/22 09:57:46;;;;;;;32.77;30.30;;;;;;;;;;5101198;28;20241;-77
2022/01/22 10:00:14;;;;;;;33.23;31.03;;;;;;;;;;5096246;28;20276;-77
2022/01/22 10:02:42;;;;;;;33.17;31.00;;;;;;;;;;5096661;28;20257;-78
2022/01/22 10:05:24;;;;;;;32.60;30.50;;;;;;;;;;5096553;28;20271;-77
2022/01/22 10:07:53;;;;;;;31.47;29.47;;;;;;;;;;5096488;28;20204;-81
2022/01/22 10:10:20;;;;;;;31.70;29.17;;;;;;;;;;5096740;28;20284;-79
2022/01/22 10:12:47;;;;;;;35.50;33.17;;;;;;;;;;5097690;28;20190;-80
2022/01/22 10:15:16;;;;;;;34.20;32.00;;;;;;;;;;5099304;28;20194;-81
2022/01/22 10:17:44;;;;;;;34.30;32.10;;;;;;;;;;5101747;28;20198;-79
2022/01/22 10:20:26;;;;;;;32.67;30.57;;;;;;;;;;5100719;28;20222;-78
2022/01/22 10:22:58;;;;;;;29.23;26.73;;;;;;;;;;5104745;28;20204;-77
2022/01/22 10:25:26;;;;;;;31.73;29.43;;;;;;;;;;5099973;28;20190;-79
2022/01/22 10:27:55;;;;;;;30.07;27.87;;;;;;;;;;5101653;28;20194;-79
2022/01/22 10:30:22;;;;;;;26.63;24.77;;;;;;;;;;5106542;28;20194;-80
2022/01/22 10:32:53;;;;;;;23.90;22.40;;;;;;;;;;5104844;28;20196;-80
2022/01/22 10:35:23;;;;;;;27.17;25.47;;;;;;;;;;5099574;28;20181;-79
2022/01/22 10:37:54;;;;;;;31.17;29.13;;;;;;;;;;5095377;28;20190;-80
2022/01/22 10:40:26;;;;;;;39.07;36.10;;;;;;;;;;5094278;28;20670;-79
2022/01/22 10:42:52;;;;;;;26.83;25.13;;;;;;;;;;5093882;28;20601;-79
2022/01/22 10:45:27;;;;;;;34.33;32.13;;;;;;;;;;5094840;28;20225;-78
2022/01/22 10:48:09;;;;;;;31.67;29.53;;;;;;;;;;5093574;28;20197;-78
2022/01/22 10:50:36;;;;;;;33.30;31.10;;;;;;;;;;5084219;28;20233;-79
2022/01/22 10:53:02;;;;;;;30.43;28.33;;;;;;;;;;5093615;28;20193;-79
2022/01/22 10:55:30;;;;;;;29.40;27.50;;;;;;;;;;5093901;28;20216;-78
2022/01/22 10:58:15;;;;;;;26.93;25.33;;;;;;;;;;5093162;28;20264;-78
2022/01/22 11:00:41;;;;;;;26.87;25.27;;;;;;;;;;5093085;28;20304;-78
2022/01/22 11:03:22;;;;;;;25.87;24.23;;;;;;;;;;5093100;28;20193;-77
2022/01/22 11:05:49;;;;;;;26.83;24.93;;;;;;;;;;5092737;28;20189;-76
2022/01/22 11:08:16;;;;;;;26.50;24.80;;;;;;;;;;5092718;28;20216;-76
2022/01/22 11:10:46;;;;;;;26.83;25.17;;;;;;;;;;5092761;28;20281;-76
2022/01/22 11:13:12;;;;;;;28.50;26.63;;;;;;;;;;5092730;28;20194;-76
2022/01/22 11:15:40;;;;;;;26.33;24.63;;;;;;;;;;5092312;28;20280;-76
2022/01/22 11:18:08;;;;;;;25.00;23.27;;;;;;;;;;5092564;28;20250;-74
2022/01/22 11:20:35;;;;;;;24.80;23.20;;;;;;;;;;5092183;28;20615;-73
2022/01/22 11:23:02;;;;;;;24.53;23.03;;;;;;;;;;5092471;28;20251;-76
2022/01/22 11:25:28;;;;;;;24.47;22.97;;;;;;;;;;5092490;28;20656;-76
2022/01/22 11:27:57;;;;;;;25.67;23.87;;;;;;;;;;5092427;28;20280;-75
2022/01/22 11:30:25;;;;;;;23.53;22.03;;;;;;;;;;5092341;28;20283;-77
2022/01/22 11:32:55;;;;;;;23.30;21.80;;;;;;;;;;5092083;28;20198;-77
2022/01/22 11:35:24;;;;;;;23.67;22.20;;;;;;;;;;5091982;28;20289;-76
2022/01/22 11:37:52;;;;;;;22.40;21.10;;;;;;;;;;5092355;28;20201;-76
2022/01/22 11:40:20;;;;;;;22.83;21.23;;;;;;;;;;5092225;28;20229;-77
2022/01/22 11:43:00;;;;;;;25.10;23.40;;;;;;;;;;5092786;28;20194;-76
2022/01/22 11:45:29;;;;;;;25.77;24.13;;;;;;;;;;5095249;28;20588;-77
2022/01/22 11:48:11;;;;;;;21.07;19.97;;;;;;;;;;5096142;28;20239;-77
2022/01/22 11:50:38;;;;;;;23.03;21.53;;;;;;;;;;5094629;28;20216;-77
2022/01/22 11:53:20;;;;;;;21.73;20.63;;;;;;;;;;5095970;28;20197;-77
2022/01/22 11:56:13;;;;;;;21.40;20.30;;;;;;;;;;5094159;28;20230;-78
2022/01/22 11:59:00;;;;;;;21.67;20.47;;;;;;;;;;5095756;28;20225;-78
2022/01/22 12:01:41;;;;;;;20.47;19.33;;;;;;;;;;5095976;28;20197;-78
2022/01/22 12:04:10;;;;;;;22.97;20.33;;;;;;;;;;5095577;28;20280;-78
2022/01/22 12:06:38;;;;;;;20.70;19.67;;;;;;;;;;5095741;28;20281;-77
2022/01/22 12:09:06;;;;;;;21.40;20.10;;;;;;;;;;5096025;28;20194;-77
2022/01/22 12:14:35;;;;;;;21.13;19.77;;;;;;;;;;5096263;28;20231;-78
2022/01/22 12:17:04;;;;;;;19.77;18.77;;;;;;;;;;5095502;28;20270;-78
2022/01/22 12:19:52;;;;;;;21.27;20.13;;;;;;;;;;5095824;28;20232;-78
2022/01/22 12:22:30;;;;;;;21.50;20.30;;;;;;;;;;5096101;28;20190;-79
2022/01/22 12:24:56;;;;;;;23.80;21.83;;;;;;;;;;5096299;28;20247;-77
2022/01/22 12:27:38;;;;;;;22.73;21.27;;;;;;;;;;5095687;28;20190;-78
2022/01/22 12:30:05;;;;;;;20.60;19.47;;;;;;;;;;5095130;28;20237;-77
2022/01/22 12:32:43;;;;;;;24.13;21.90;;;;;;;;;;5095297;28;20193;-77
2022/01/22 12:35:16;;;;;;;21.37;20.27;;;;;;;;;;5095268;28;20185;-77
2022/01/22 12:37:49;;;;;;;20.77;19.77;;;;;;;;;;5095283;28;20193;-77
2022/01/22 12:40:27;;;;;;;19.93;18.83;;;;;;;;;;5095012;28;20224;-77
2022/01/22 12:43:01;;;;;;;24.23;22.50;;;;;;;;;;5095413;28;20193;-77
2022/01/22 12:45:28;;;;;;;24.37;22.83;;;;;;;;;;5095049;28;20189;-77
2022/01/22 12:47:58;;;;;;;30.27;22.07;;;;;;;;;;5094993;28;20240;-77
2022/01/22 12:50:31;;;;;;;22.43;21.13;;;;;;;;;;5095256;28;20371;-76
2022/01/22 12:53:03;;;;;;;21.70;20.50;;;;;;;;;;5095272;28;20190;-77
2022/01/22 12:55:50;;;;;;;24.63;23.23;;;;;;;;;;5093788;28;20659;-77
2022/01/22 12:58:24;;;;;;;23.80;22.40;;;;;;;;;;5094627;28;20316;-77
2022/01/22 13:00:53;;;;;;;23.27;21.97;;;;;;;;;;5095015;28;20672;-77
2022/01/22 13:03:32;;;;;;;22.23;21.07;;;;;;;;;;5094966;28;20217;-77
2022/01/22 13:06:00;;;;;;;22.17;20.97;;;;;;;;;;5094591;28;20228;-77
2022/01/22 13:08:27;;;;;;;25.53;23.90;;;;;;;;;;5094864;28;20198;-75
2022/01/22 13:10:55;;;;;;;26.00;24.20;;;;;;;;;;5094444;28;20194;-77
2022/01/22 13:13:22;;;;;;;24.23;22.70;;;;;;;;;;5095262;28;20281;-77
2022/01/22 13:16:00;;;;;;;25.00;23.50;;;;;;;;;;5094402;28;20220;-76
2022/01/22 13:18:38;;;;;;;25.50;23.87;;;;;;;;;;5094404;28;20185;-76
2022/01/22 13:21:07;;;;;;;23.60;22.20;;;;;;;;;;5094275;28;20237;-76
2022/01/22 13:23:34;;;;;;;22.33;21.13;;;;;;;;;;5094595;28;20198;-76
2022/01/22 13:26:01;;;;;;;23.93;22.47;;;;;;;;;;5094208;28;20193;-77
2022/01/22 13:28:29;;;;;;;23.37;21.90;;;;;;;;;;5094530;28;20247;-76
2022/01/22 13:31:01;;;;;;;24.37;22.53;;;;;;;;;;5094527;28;20198;-77
2022/01/22 13:33:36;;;;;;;23.60;22.20;;;;;;;;;;5094127;28;20659;-76
2022/01/22 13:36:14;;;;;;;23.67;22.37;;;;;;;;;;5094075;28;20549;-77
2022/01/22 13:39:00;;;;;;;23.20;21.90;;;;;;;;;;5093990;28;20197;-76
2022/01/22 13:49:41;;;;;;;22.10;20.90;;;;;;;;;;5094126;28;20185;-77
2022/01/22 13:52:09;;;;;;;23.57;22.27;;;;;;;;;;5093762;28;20225;-77
2022/01/22 13:54:38;;;;;;;25.13;23.53;;;;;;;;;;5093895;28;20281;-75
2022/01/22 13:57:07;;;;;;;26.73;25.23;;;;;;;;;;5093887;28;20199;-76
2022/01/22 13:59:36;;;;;;;24.33;23.03;;;;;;;;;;5093318;28;20679;-77
2022/01/22 14:02:08;;;;;;;25.40;23.63;;;;;;;;;;5093831;28;20198;-77
2022/01/22 14:04:38;;;;;;;24.63;23.33;;;;;;;;;;5093544;28;20193;-77
2022/01/22 14:07:12;;;;;;;24.53;23.07;;;;;;;;;;5093416;28;20197;-76
2022/01/22 14:09:50;;;;;;;25.17;23.77;;;;;;;;;;5093496;28;20190;-76
2022/01/22 14:12:18;;;;;;;23.23;22.00;;;;;;;;;;5093710;28;20285;-77
2022/01/22 14:15:02;;;;;;;22.50;21.23;;;;;;;;;;5093742;28;20202;-75
2022/01/22 14:17:37;;;;;;;22.60;21.20;;;;;;;;;;5093586;28;20233;-76
2022/01/22 14:20:06;;;;;;;22.63;21.33;;;;;;;;;;5093095;28;20245;-77
2022/01/22 14:22:47;;;;;;;21.00;20.00;;;;;;;;;;5093489;28;20263;-76
2022/01/22 14:25:16;;;;;;;22.43;21.23;;;;;;;;;;5092948;28;20232;-76
2022/01/22 14:27:43;;;;;;;22.37;21.17;;;;;;;;;;5093701;28;20194;-77
2022/01/22 14:30:10;;;;;;;21.90;20.70;;;;;;;;;;5092981;28;20258;-77
2022/01/22 14:32:36;;;;;;;21.87;20.67;;;;;;;;;;5093238;28;20225;-76
2022/01/22 14:35:19;;;;;;;19.97;18.97;;;;;;;;;;5093219;28;20198;-77
2022/01/22 14:37:46;;;;;;;22.83;21.30;;;;;;;;;;5093267;28;20651;-76
2022/01/22 14:45:55;;;;;;;20.80;19.60;;;;;;;;;;5093413;28;20185;-76
2022/01/22 14:48:22;;;;;;;19.17;18.27;;;;;;;;;;5092681;28;20185;-77
2022/01/22 14:50:49;;;;;;;20.53;19.33;;;;;;;;;;5092998;28;20251;-77
2022/01/22 14:53:16;;;;;;;20.93;19.73;;;;;;;;;;5092597;28;20205;-77
2022/01/22 14:55:50;;;;;;;19.57;18.57;;;;;;;;;;5092548;28;20664;-79
2022/01/22 14:58:17;;;;;;;20.53;19.50;;;;;;;;;;5092569;28;20272;-79
2022/01/22 15:00:43;;;;;;;21.37;20.00;;;;;;;;;;5092363;28;20770;-79
2022/01/22 15:03:10;;;;;;;19.47;18.47;;;;;;;;;;5092771;28;20194;-79
2022/01/22 15:05:38;;;;;;;18.50;17.70;;;;;;;;;;5092688;28;20272;-79
2022/01/22 15:08:05;;;;;;;18.57;17.77;;;;;;;;;;5092684;28;20229;-80
2022/01/22 15:10:32;;;;;;;21.07;19.90;;;;;;;;;;5092374;28;20228;-80
2022/01/22 15:13:00;;;;;;;20.13;18.90;;;;;;;;;;5092284;28;20247;-80
2022/01/22 15:15:32;;;;;;;17.53;16.70;;;;;;;;;;5092282;28;20241;-79
2022/01/22 15:18:08;;;;;;;20.60;19.57;;;;;;;;;;5092481;28;20190;-80
2022/01/22 15:20:34;;;;;;;21.20;19.90;;;;;;;;;;5092203;28;20213;-79
2022/01/22 15:23:01;;;;;;;21.57;20.27;;;;;;;;;;5092171;28;20194;-80
2022/01/22 15:25:28;;;;;;;20.57;19.47;;;;;;;;;;5092198;28;20284;-80
2022/01/22 15:27:55;;;;;;;20.53;19.53;;;;;;;;;;5092467;28;20225;-78
2022/01/22 15:30:30;;;;;;;21.00;19.80;;;;;;;;;;5092093;28;20193;-79
2022/01/22 15:33:01;;;;;;;20.47;19.57;;;;;;;;;;5092435;28;20185;-80
2022/01/22 15:35:28;;;;;;;20.63;19.50;;;;;;;;;;5092377;28;20189;-80
2022/01/22 15:37:57;;;;;;;21.20;20.07;;;;;;;;;;5092368;28;20198;-80
2022/01/22 15:40:25;;;;;;;19.13;18.13;;;;;;;;;;5091921;28;20699;-80
2022/01/22 15:42:51;;;;;;;21.63;20.33;;;;;;;;;;5092306;28;20229;-78
2022/01/22 15:45:19;;;;;;;23.13;21.63;;;;;;;;;;5091878;28;20193;-80
2022/01/22 15:47:47;;;;;;;19.73;18.77;;;;;;;;;;5092212;28;20198;-80
2022/01/22 15:50:13;;;;;;;17.33;16.53;;;;;;;;;;5092198;28;20285;-78